Time;durP1;ratioP1;P1;durP2;ratioP2;P2;SDS_P1;SDS_P2;PMS_P1;PMS_P2;Temp;Humidity;BMP_temperature;BMP_pressure;BME280_temperature;BME280_humidity;BME280_pressure;Samples;Min_cycle;Max_cycle;Signal;HPM_P1;HPM_P2
2021/12/15 00:01:17;;;;;;;5.55;4.05;;;;;;;;;;4468786;28;20555;-60
2021/12/15 00:03:28;;;;;;;4.90;3.27;;;;;;;;;;4468489;28;20050;-59
2021/12/15 00:05:40;;;;;;;3.73;2.93;;;;;;;;;;4468135;28;20038;-60
2021/12/15 00:07:54;;;;;;;4.95;3.28;;;;;;;;;;4468507;28;20030;-59
2021/12/15 00:10:06;;;;;;;4.63;3.22;;;;;;;;;;4450738;28;20158;-60
2021/12/15 00:12:17;;;;;;;;;;;;;;;;;;4450751;28;20075;-59
2021/12/15 00:14:27;;;;;;;4.13;3.35;;;;;;;;;;4468842;28;20314;-59
2021/12/15 00:16:38;;;;;;;4.47;3.37;;;;;;;;;;4468581;28;20089;-60
2021/12/15 00:18:48;;;;;;;4.30;3.13;;;;;;;;;;4467987;28;20685;-60
2021/12/15 00:20:59;;;;;;;4.10;3.23;;;;;;;;;;4468040;28;20058;-59
2021/12/15 00:23:10;;;;;;;3.30;2.90;;;;;;;;;;4483457;28;20073;-59
2021/12/15 00:25:23;;;;;;;3.80;3.08;;;;;;;;;;4467566;28;20034;-59
2021/12/15 00:27:33;;;;;;;3.65;2.85;;;;;;;;;;4465670;28;20074;-59
2021/12/15 00:29:44;;;;;;;4.90;3.13;;;;;;;;;;4482731;28;20117;-59
2021/12/15 00:31:56;;;;;;;3.15;2.80;;;;;;;;;;4443218;28;20067;-59
2021/12/15 00:34:07;;;;;;;3.65;2.70;;;;;;;;;;4466878;28;20047;-59
2021/12/15 00:36:17;;;;;;;3.60;2.90;;;;;;;;;;4483512;28;20034;-60
2021/12/15 00:38:28;;;;;;;3.90;2.90;;;;;;;;;;4464077;28;20404;-60
2021/12/15 00:40:39;;;;;;;4.20;3.10;;;;;;;;;;4449505;28;23499;-60
2021/12/15 00:42:49;;;;;;;3.50;2.80;;;;;;;;;;4482849;28;20066;-60
2021/12/15 00:45:00;;;;;;;3.17;2.80;;;;;;;;;;4468030;28;20081;-59
2021/12/15 00:47:11;;;;;;;3.53;2.77;;;;;;;;;;4483994;28;20026;-59
2021/12/15 00:49:22;;;;;;;2.90;2.60;;;;;;;;;;4467647;28;20045;-59
2021/12/15 00:51:33;;;;;;;2.97;2.65;;;;;;;;;;4467719;28;20503;-59
2021/12/15 00:53:44;;;;;;;;;;;;;;;;;;4468799;28;20039;-59
2021/12/15 00:55:55;;;;;;;3.50;2.85;;;;;;;;;;4449997;28;19919;-59
2021/12/15 00:58:06;;;;;;;3.27;2.83;;;;;;;;;;4483121;28;20142;-59
2021/12/15 01:00:43;;;;;;;3.65;3.00;;;;;;;;;;4482264;28;20054;-60
2021/12/15 01:02:54;;;;;;;4.35;2.90;;;;;;;;;;4473386;28;20570;-59
2021/12/15 01:05:06;;;;;;;3.80;3.00;;;;;;;;;;4467867;28;20046;-59
2021/12/15 01:07:17;;;;;;;3.58;2.88;;;;;;;;;;4467429;28;20251;-59
2021/12/15 01:09:37;;;;;;;4.40;3.13;;;;;;;;;;4482652;28;20049;-59
2021/12/15 01:21:35;;;;;;;4.68;3.25;;;;;;;;;;4468500;28;20117;-59
2021/12/15 01:23:46;;;;;;;3.93;3.13;;;;;;;;;;4450240;28;20098;-59
2021/12/15 01:26:06;;;;;;;3.57;2.80;;;;;;;;;;4481770;28;20034;-59
2021/12/15 01:28:16;;;;;;;3.50;3.13;;;;;;;;;;4482247;28;20034;-59
2021/12/15 01:30:32;;;;;;;5.03;3.60;;;;;;;;;;4467651;28;20041;-59
2021/12/15 01:32:43;;;;;;;4.35;3.22;;;;;;;;;;4449887;28;20038;-59
2021/12/15 01:34:54;;;;;;;4.43;3.47;;;;;;;;;;4466722;28;21284;-59
2021/12/15 01:37:06;;;;;;;4.67;3.80;;;;;;;;;;4468236;28;20019;-59
2021/12/15 01:39:16;;;;;;;;;;;;;;;;;;4482819;28;20034;-59
2021/12/15 01:41:27;;;;;;;4.50;3.65;;;;;;;;;;4449270;28;19922;-59
2021/12/15 01:46:52;;;;;;;5.07;3.57;;;;;;;;;;4467965;28;20408;-59
2021/12/15 01:48:57;;;;;;;5.10;3.85;;;;;;;;;;4454935;28;20039;-59
2021/12/15 01:51:10;;;;;;;5.68;3.70;;;;;;;;;;4473238;28;20577;-59
2021/12/15 01:53:20;;;;;;;5.38;4.03;;;;;;;;;;4488653;28;20038;-59
2021/12/15 01:55:31;;;;;;;5.33;3.83;;;;;;;;;;4488821;28;20046;-59
2021/12/15 01:57:42;;;;;;;4.83;4.07;;;;;;;;;;4455136;28;20118;-59
2021/12/15 01:59:53;;;;;;;5.25;3.72;;;;;;;;;;4487671;28;20061;-59
2021/12/15 02:02:05;;;;;;;4.88;3.88;;;;;;;;;;4473391;28;20973;-59
2021/12/15 02:04:16;;;;;;;;;;;;;;;;;;4473467;28;20042;-59
2021/12/15 02:06:28;;;;;;;5.43;4.43;;;;;;;;;;4455972;28;20441;-59
2021/12/15 02:08:39;;;;;;;5.38;3.95;;;;;;;;;;4458467;28;20057;-59
2021/12/15 02:10:50;;;;;;;5.53;4.10;;;;;;;;;;4487590;28;20038;-59
2021/12/15 02:13:04;;;;;;;5.10;4.10;;;;;;;;;;4473693;28;20081;-59
2021/12/15 02:15:18;;;;;;;5.60;4.15;;;;;;;;;;4472838;28;20034;-59
2021/12/15 02:17:28;;;;;;;5.50;4.22;;;;;;;;;;4455526;28;20039;-60
2021/12/15 02:19:39;;;;;;;5.80;4.38;;;;;;;;;;4454148;28;20039;-59
2021/12/15 02:21:52;;;;;;;6.10;4.60;;;;;;;;;;4455093;28;20137;-59
2021/12/15 02:24:03;;;;;;;6.95;4.85;;;;;;;;;;4455004;28;20043;-60
2021/12/15 02:26:21;;;;;;;4.77;4.00;;;;;;;;;;4471379;28;20427;-59
2021/12/15 02:28:31;;;;;;;6.90;4.60;;;;;;;;;;4488036;28;20026;-59
2021/12/15 02:30:53;;;;;;;6.80;4.60;;;;;;;;;;4473664;28;20031;-59
2021/12/15 02:38:00;;;;;;;5.97;4.20;;;;;;;;;;4487959;28;20649;-59
2021/12/15 02:40:15;;;;;;;6.27;4.47;;;;;;;;;;4471601;28;31668;-59
2021/12/15 02:42:32;;;;;;;7.40;5.38;;;;;;;;;;4454774;28;20788;-59
2021/12/15 02:44:44;;;;;;;6.70;4.75;;;;;;;;;;4487702;28;20522;-60
2021/12/15 02:46:55;;;;;;;5.97;4.30;;;;;;;;;;4473395;28;20113;-59
2021/12/15 02:49:08;;;;;;;6.70;4.88;;;;;;;;;;4456939;28;20082;-59
2021/12/15 02:51:19;;;;;;;5.70;4.50;;;;;;;;;;4471698;28;20034;-59
2021/12/15 02:53:30;;;;;;;6.80;4.68;;;;;;;;;;4472679;28;20526;-59
2021/12/15 02:55:40;;;;;;;5.63;4.50;;;;;;;;;;4488275;28;20847;-59
2021/12/15 02:57:51;;;;;;;6.10;4.20;;;;;;;;;;4469114;28;20042;-59
2021/12/15 03:00:16;;;;;;;6.50;4.75;;;;;;;;;;4469689;28;20039;-59
2021/12/15 03:03:01;;;;;;;5.63;4.13;;;;;;;;;;4469793;28;20035;-60
2021/12/15 03:05:16;;;;;;;6.10;4.35;;;;;;;;;;4480963;28;20062;-59
2021/12/15 03:07:34;;;;;;;6.45;4.60;;;;;;;;;;4469301;28;20042;-59
2021/12/15 03:16:58;;;;;;;5.80;4.30;;;;;;;;;;4469561;28;20046;-59
2021/12/15 03:19:09;;;;;;;5.70;4.03;;;;;;;;;;4469982;28;20031;-59
2021/12/15 03:21:25;;;;;;;6.28;4.10;;;;;;;;;;4470591;28;20178;-59
2021/12/15 03:23:52;;;;;;;5.65;4.10;;;;;;;;;;4435646;28;20662;-59
2021/12/15 03:26:03;;;;;;;5.45;3.85;;;;;;;;;;4469384;28;20030;-59
2021/12/15 03:35:48;;;;;;;5.07;3.80;;;;;;;;;;4469690;28;20031;-59
2021/12/15 03:37:57;;;;;;;5.50;4.18;;;;;;;;;;4469167;28;20641;-59
2021/12/15 03:40:16;;;;;;;6.07;4.23;;;;;;;;;;4451707;28;20034;-59
2021/12/15 03:42:34;;;;;;;5.85;3.97;;;;;;;;;;4469240;28;20081;-59
2021/12/15 03:44:46;;;;;;;4.60;3.42;;;;;;;;;;4469223;28;20046;-59
2021/12/15 03:46:57;;;;;;;6.18;4.07;;;;;;;;;;4469271;28;21006;-59
2021/12/15 03:49:08;;;;;;;;;;;;;;;;;;4469685;28;20031;-59
2021/12/15 03:51:18;;;;;;;4.93;3.55;;;;;;;;;;4468664;28;19922;-59
2021/12/15 03:53:29;;;;;;;4.80;3.70;;;;;;;;;;4467727;28;20034;-59
2021/12/15 03:55:41;;;;;;;4.60;3.43;;;;;;;;;;4469597;28;20491;-61
2021/12/15 03:57:52;;;;;;;5.25;3.85;;;;;;;;;;4469772;28;20563;-59
2021/12/15 04:00:07;;;;;;;4.47;3.65;;;;;;;;;;4450870;28;20573;-59
2021/12/15 04:02:22;;;;;;;5.35;3.75;;;;;;;;;;4483135;28;20121;-59
2021/12/15 04:04:32;;;;;;;5.63;3.97;;;;;;;;;;4469080;28;20406;-59
2021/12/15 04:06:43;;;;;;;4.73;3.57;;;;;;;;;;4469318;28;20030;-59
2021/12/15 04:08:54;;;;;;;4.70;3.30;;;;;;;;;;4467613;28;29268;-59
2021/12/15 04:11:07;;;;;;;4.80;3.53;;;;;;;;;;4483077;28;20030;-59
2021/12/15 04:13:18;;;;;;;5.95;3.60;;;;;;;;;;4468583;28;20031;-59
2021/12/15 04:15:30;;;;;;;5.73;3.50;;;;;;;;;;4468723;28;20047;-59
2021/12/15 04:17:41;;;;;;;4.50;3.13;;;;;;;;;;4468243;28;20031;-59
2021/12/15 04:19:55;;;;;;;4.83;3.80;;;;;;;;;;4468809;28;20492;-59
2021/12/15 04:22:06;;;;;;;5.68;3.45;;;;;;;;;;4469443;28;20803;-59
2021/12/15 04:24:18;;;;;;;4.83;3.70;;;;;;;;;;4468199;28;20039;-59
2021/12/15 04:26:28;;;;;;;;;;;;;;;;;;4484229;28;20093;-59
2021/12/15 04:28:39;;;;;;;5.00;3.50;;;;;;;;;;4483773;28;20017;-59
2021/12/15 04:30:56;;;;;;;5.30;3.60;;;;;;;;;;4468387;28;20019;-59
2021/12/15 04:33:14;;;;;;;4.47;3.55;;;;;;;;;;4468298;28;20150;-59
2021/12/15 04:35:26;;;;;;;5.68;3.90;;;;;;;;;;4468540;28;21367;-59
2021/12/15 04:37:37;;;;;;;4.47;3.50;;;;;;;;;;4443868;28;20042;-61
2021/12/15 04:39:47;;;;;;;4.25;3.45;;;;;;;;;;4483094;28;20050;-59
2021/12/15 04:41:59;;;;;;;4.73;3.27;;;;;;;;;;4484055;28;20030;-59
2021/12/15 04:44:10;;;;;;;;;;;;;;;;;;4468610;28;20051;-59
2021/12/15 04:46:24;;;;;;;4.80;3.50;;;;;;;;;;4469414;28;19914;-59
2021/12/15 04:48:37;;;;;;;4.63;3.75;;;;;;;;;;4468438;28;20031;-59
2021/12/15 04:50:48;;;;;;;5.50;3.80;;;;;;;;;;4449739;28;20024;-59
2021/12/15 04:53:02;;;;;;;4.90;3.47;;;;;;;;;;4468591;28;20042;-59
2021/12/15 04:55:13;;;;;;;5.68;3.92;;;;;;;;;;4468448;28;20336;-59
2021/12/15 04:57:24;;;;;;;4.77;3.50;;;;;;;;;;4483547;28;20406;-59
2021/12/15 04:59:35;;;;;;;4.95;3.70;;;;;;;;;;4468079;28;20253;-59
2021/12/15 05:01:46;;;;;;;4.75;3.58;;;;;;;;;;4451144;28;20119;-59
2021/12/15 05:03:57;;;;;;;4.97;3.35;;;;;;;;;;4467862;28;20643;-59
2021/12/15 05:06:08;;;;;;;4.53;3.33;;;;;;;;;;4467728;28;20055;-59
2021/12/15 05:08:19;;;;;;;4.00;3.20;;;;;;;;;;4483269;28;20038;-59
2021/12/15 05:10:30;;;;;;;3.60;3.00;;;;;;;;;;4467463;28;20035;-60
2021/12/15 05:12:40;;;;;;;4.57;3.30;;;;;;;;;;4468042;28;20039;-59
2021/12/15 05:14:51;;;;;;;4.43;3.10;;;;;;;;;;4482642;28;20073;-59
2021/12/15 05:17:02;;;;;;;4.03;2.97;;;;;;;;;;4483228;28;20030;-59
2021/12/15 05:19:13;;;;;;;4.80;3.58;;;;;;;;;;4467360;28;20590;-59
2021/12/15 05:21:24;;;;;;;4.80;3.53;;;;;;;;;;4450750;28;20042;-59
2021/12/15 05:23:34;;;;;;;4.60;3.40;;;;;;;;;;4468341;28;20113;-59
2021/12/15 05:25:46;;;;;;;5.20;3.70;;;;;;;;;;4468088;28;20089;-59
2021/12/15 05:27:57;;;;;;;5.80;3.50;;;;;;;;;;4482829;28;20055;-60
2021/12/15 05:30:10;;;;;;;4.23;3.47;;;;;;;;;;4467544;28;20030;-59
2021/12/15 05:32:22;;;;;;;4.18;3.38;;;;;;;;;;4453432;28;20582;-59
2021/12/15 05:34:32;;;;;;;4.90;3.58;;;;;;;;;;4450775;28;20027;-59
2021/12/15 05:36:44;;;;;;;4.90;3.40;;;;;;;;;;4467929;28;20039;-59
2021/12/15 05:38:55;;;;;;;4.60;3.25;;;;;;;;;;4450348;28;20063;-59
2021/12/15 05:41:05;;;;;;;4.40;3.50;;;;;;;;;;4467685;28;20023;-59
2021/12/15 05:43:15;;;;;;;4.53;3.30;;;;;;;;;;4467769;28;20551;-59
2021/12/15 05:45:29;;;;;;;5.33;3.70;;;;;;;;;;4468170;28;20039;-60
2021/12/15 05:47:40;;;;;;;5.82;3.92;;;;;;;;;;4482790;28;20042;-59
2021/12/15 05:49:51;;;;;;;5.13;3.70;;;;;;;;;;4467316;28;20041;-59
2021/12/15 05:52:03;;;;;;;5.10;3.78;;;;;;;;;;4449864;28;20988;-59
2021/12/15 05:54:15;;;;;;;5.50;4.10;;;;;;;;;;4465915;28;20665;-59
2021/12/15 05:56:26;;;;;;;4.78;3.60;;;;;;;;;;4482052;28;20042;-60
2021/12/15 05:58:37;;;;;;;5.57;4.10;;;;;;;;;;4449025;28;20035;-59
2021/12/15 06:00:49;;;;;;;6.18;3.83;;;;;;;;;;4466434;28;21898;-59
2021/12/15 06:03:00;;;;;;;4.45;3.67;;;;;;;;;;4442582;28;20771;-59
2021/12/15 06:05:11;;;;;;;5.45;4.15;;;;;;;;;;4465349;28;20046;-59
2021/12/15 06:07:22;;;;;;;5.80;4.20;;;;;;;;;;4468080;28;20810;-60
2021/12/15 06:09:33;;;;;;;5.30;3.88;;;;;;;;;;4481911;28;20085;-59
2021/12/15 06:11:48;;;;;;;6.03;4.47;;;;;;;;;;4467240;28;20027;-59
2021/12/15 06:13:59;;;;;;;6.50;4.60;;;;;;;;;;4451973;28;20070;-60
2021/12/15 06:16:10;;;;;;;5.63;4.20;;;;;;;;;;4466756;28;20118;-59
2021/12/15 06:18:21;;;;;;;5.60;3.78;;;;;;;;;;4466841;28;20882;-59
2021/12/15 06:20:32;;;;;;;6.03;4.50;;;;;;;;;;4481048;28;20097;-59
2021/12/15 06:22:45;;;;;;;6.00;4.25;;;;;;;;;;4468651;28;20579;-60
2021/12/15 06:24:56;;;;;;;6.05;4.47;;;;;;;;;;4468792;28;20121;-59
2021/12/15 06:27:16;;;;;;;5.00;3.70;;;;;;;;;;4468389;28;20039;-59
2021/12/15 06:29:29;;;;;;;6.43;4.35;;;;;;;;;;4469045;28;20035;-59
2021/12/15 06:31:40;;;;;;;5.68;4.00;;;;;;;;;;4468872;28;20034;-59
2021/12/15 06:33:51;;;;;;;5.15;3.95;;;;;;;;;;4471982;28;20230;-59
2021/12/15 06:36:03;;;;;;;5.27;3.97;;;;;;;;;;4471816;28;21995;-59
2021/12/15 06:38:13;;;;;;;5.40;4.13;;;;;;;;;;4486126;28;20041;-59
2021/12/15 06:40:24;;;;;;;6.30;4.37;;;;;;;;;;4471366;28;20046;-59
2021/12/15 06:42:36;;;;;;;5.37;3.80;;;;;;;;;;4471381;28;20058;-59
2021/12/15 06:44:47;;;;;;;5.43;3.83;;;;;;;;;;4486208;28;20050;-59
2021/12/15 06:47:21;;;;;;;6.25;3.78;;;;;;;;;;4471616;28;20118;-59
2021/12/15 06:59:26;;;;;;;5.70;4.15;;;;;;;;;;4471188;28;20042;-59
2021/12/15 07:01:37;;;;;;;5.03;3.83;;;;;;;;;;4471054;28;20038;-59
2021/12/15 07:03:47;;;;;;;6.33;4.03;;;;;;;;;;4470721;28;20849;-59
2021/12/15 07:05:58;;;;;;;5.70;4.00;;;;;;;;;;4471370;28;20098;-59
2021/12/15 07:08:09;;;;;;;5.30;3.97;;;;;;;;;;4455892;28;20127;-59
2021/12/15 07:10:23;;;;;;;4.07;3.53;;;;;;;;;;4455583;28;20051;-59
2021/12/15 07:12:33;;;;;;;5.32;3.60;;;;;;;;;;4471135;28;20747;-59
2021/12/15 07:14:44;;;;;;;4.40;3.57;;;;;;;;;;4471444;28;20047;-59
2021/12/15 07:16:57;;;;;;;4.43;3.30;;;;;;;;;;4471277;28;20035;-60
2021/12/15 07:19:19;;;;;;;5.03;3.70;;;;;;;;;;4453586;28;20859;-59
2021/12/15 07:21:35;;;;;;;4.65;3.30;;;;;;;;;;4470757;28;20041;-60
2021/12/15 07:23:46;;;;;;;4.45;3.50;;;;;;;;;;4484892;28;20568;-59
2021/12/15 07:25:57;;;;;;;4.57;3.53;;;;;;;;;;4453062;28;20047;-60
2021/12/15 07:28:08;;;;;;;5.70;3.47;;;;;;;;;;4470733;28;26463;-59
2021/12/15 07:30:19;;;;;;;4.28;3.42;;;;;;;;;;4485566;28;20039;-60
2021/12/15 07:32:29;;;;;;;4.50;3.55;;;;;;;;;;4470144;28;20035;-59
2021/12/15 07:34:40;;;;;;;4.33;3.53;;;;;;;;;;4469802;28;20043;-59
2021/12/15 07:36:50;;;;;;;5.17;3.33;;;;;;;;;;4452847;28;20035;-59
2021/12/15 07:39:01;;;;;;;4.97;3.20;;;;;;;;;;4451590;28;20046;-59
2021/12/15 07:41:25;;;;;;;3.97;3.30;;;;;;;;;;4469807;28;20385;-59
2021/12/15 07:43:35;;;;;;;4.18;3.42;;;;;;;;;;4469496;28;20138;-59
2021/12/15 07:45:51;;;;;;;4.23;3.40;;;;;;;;;;4452462;28;20039;-59
2021/12/15 07:48:03;;;;;;;3.65;2.80;;;;;;;;;;4471037;28;20039;-60
2021/12/15 07:50:13;;;;;;;3.65;3.17;;;;;;;;;;4484777;28;20069;-59
2021/12/15 07:52:24;;;;;;;3.73;2.90;;;;;;;;;;4485009;28;20915;-60
2021/12/15 07:54:36;;;;;;;3.20;2.87;;;;;;;;;;4469917;28;20042;-59
2021/12/15 07:56:47;;;;;;;3.33;2.72;;;;;;;;;;4457477;28;20034;-59
2021/12/15 07:58:57;;;;;;;3.40;2.88;;;;;;;;;;4470511;28;20042;-59
2021/12/15 08:01:08;;;;;;;3.23;2.57;;;;;;;;;;4470364;28;20030;-59
2021/12/15 08:03:20;;;;;;;3.50;2.80;;;;;;;;;;4452310;28;20051;-59
2021/12/15 08:05:30;;;;;;;3.70;2.60;;;;;;;;;;4485191;28;20250;-60
2021/12/15 08:07:41;;;;;;;2.93;2.50;;;;;;;;;;4452264;28;20035;-58
2021/12/15 08:09:51;;;;;;;3.20;2.43;;;;;;;;;;4468779;28;20035;-58
2021/12/15 08:12:02;;;;;;;3.00;2.47;;;;;;;;;;4451918;28;20040;-58
2021/12/15 08:14:12;;;;;;;3.20;2.40;;;;;;;;;;4468743;28;20034;-58
2021/12/15 08:16:24;;;;;;;3.57;2.60;;;;;;;;;;4467933;28;21971;-58
2021/12/15 08:18:35;;;;;;;3.22;2.47;;;;;;;;;;4451145;28;20039;-59
2021/12/15 08:20:46;;;;;;;3.23;2.30;;;;;;;;;;4468074;28;20042;-58
2021/12/15 08:22:56;;;;;;;2.70;2.33;;;;;;;;;;4468206;28;20035;-59
2021/12/15 08:25:09;;;;;;;2.50;2.00;;;;;;;;;;4484628;28;22610;-58
2021/12/15 08:27:20;;;;;;;2.60;2.28;;;;;;;;;;4469203;28;20640;-59
2021/12/15 08:29:30;;;;;;;2.97;2.07;;;;;;;;;;4469330;28;20053;-59
2021/12/15 08:31:41;;;;;;;3.10;2.27;;;;;;;;;;4469201;28;20113;-59
2021/12/15 08:33:52;;;;;;;3.00;2.30;;;;;;;;;;4467844;28;20039;-59
2021/12/15 08:36:08;;;;;;;2.67;2.10;;;;;;;;;;4469444;28;20313;-59
2021/12/15 08:38:19;;;;;;;2.60;2.00;;;;;;;;;;4470068;28;20030;-59
2021/12/15 08:40:30;;;;;;;2.17;1.80;;;;;;;;;;4468655;28;20061;-60
2021/12/15 08:42:41;;;;;;;2.47;2.00;;;;;;;;;;4468262;28;20274;-59
2021/12/15 08:44:51;;;;;;;2.93;2.00;;;;;;;;;;4483039;28;20050;-59
2021/12/15 08:47:03;;;;;;;2.37;1.93;;;;;;;;;;4468479;28;20137;-60
2021/12/15 08:49:18;;;;;;;1.92;1.73;;;;;;;;;;4468360;28;20023;-60
2021/12/15 08:51:28;;;;;;;2.65;1.90;;;;;;;;;;4460269;28;20119;-59
2021/12/15 08:53:41;;;;;;;2.00;1.60;;;;;;;;;;4468736;28;20074;-59
2021/12/15 08:55:52;;;;;;;2.65;1.90;;;;;;;;;;4469538;28;20034;-59
2021/12/15 08:58:05;;;;;;;2.40;2.00;;;;;;;;;;4482995;28;20027;-61
2021/12/15 09:00:21;;;;;;;2.53;2.03;;;;;;;;;;4467671;28;20042;-59
2021/12/15 09:02:31;;;;;;;2.70;2.00;;;;;;;;;;4454107;28;20039;-59
2021/12/15 09:04:42;;;;;;;2.43;1.70;;;;;;;;;;4468814;28;20724;-59
2021/12/15 09:06:52;;;;;;;2.17;1.73;;;;;;;;;;4449122;28;20079;-59
2021/12/15 09:09:05;;;;;;;2.20;1.97;;;;;;;;;;4450395;28;20093;-59
2021/12/15 09:11:20;;;;;;;1.70;1.50;;;;;;;;;;4450028;28;20062;-59
2021/12/15 09:13:31;;;;;;;2.47;1.70;;;;;;;;;;4483657;28;20913;-59
2021/12/15 09:15:43;;;;;;;2.40;1.80;;;;;;;;;;4468224;28;20038;-59
2021/12/15 09:17:53;;;;;;;;;;;;;;;;;;4469188;28;20070;-59
2021/12/15 09:20:07;;;;;;;2.10;1.60;;;;;;;;;;4468171;28;20413;-59
2021/12/15 09:22:17;;;;;;;2.00;1.70;;;;;;;;;;4467607;28;20073;-59
2021/12/15 09:24:27;;;;;;;1.57;1.40;;;;;;;;;;4468037;28;20162;-59
2021/12/15 09:26:38;;;;;;;2.03;1.60;;;;;;;;;;4468254;28;20038;-59
2021/12/15 09:28:50;;;;;;;2.43;1.50;;;;;;;;;;4483635;28;20041;-59
2021/12/15 09:31:00;;;;;;;;;;;;;;;;;;4450247;28;20570;-60
2021/12/15 09:33:15;;;;;;;2.05;1.50;;;;;;;;;;4468305;28;19922;-59
2021/12/15 09:35:27;;;;;;;2.35;1.33;;;;;;;;;;4482976;28;20034;-59
2021/12/15 09:37:38;;;;;;;1.50;1.33;;;;;;;;;;4468258;28;20034;-59
2021/12/15 09:39:48;;;;;;;2.17;1.57;;;;;;;;;;4469938;28;20049;-59
2021/12/15 09:42:00;;;;;;;2.00;1.60;;;;;;;;;;4467986;28;20114;-59
2021/12/15 09:44:14;;;;;;;1.67;1.23;;;;;;;;;;4467571;28;20721;-59
2021/12/15 10:03:49;;;;;;;1.60;1.50;;;;;;;;;;4468305;28;20629;-59
2021/12/15 10:06:21;;;;;;;1.77;1.50;;;;;;;;;;4468951;28;20031;-60
2021/12/15 10:20:39;;;;;;;1.77;1.47;;;;;;;;;;4470816;28;20053;-59
2021/12/15 10:22:58;;;;;;;1.73;1.52;;;;;;;;;;4470949;28;20082;-59
2021/12/15 10:25:20;;;;;;;1.80;1.50;;;;;;;;;;4471248;28;20122;-59
2021/12/15 10:27:47;;;;;;;2.03;1.70;;;;;;;;;;4471238;28;20878;-59
2021/12/15 10:30:06;;;;;;;3.00;2.00;;;;;;;;;;4470594;28;20790;-59
2021/12/15 10:32:16;;;;;;;2.50;2.03;;;;;;;;;;4470782;28;21081;-59
2021/12/15 10:34:27;;;;;;;2.67;2.00;;;;;;;;;;4452828;28;20077;-59
2021/12/15 10:36:38;;;;;;;2.42;1.90;;;;;;;;;;4470925;28;20042;-59
2021/12/15 10:38:54;;;;;;;1.93;1.43;;;;;;;;;;4470573;28;20043;-59
2021/12/15 10:41:20;;;;;;;1.40;1.23;;;;;;;;;;4470688;28;20538;-59
2021/12/15 10:43:36;;;;;;;1.60;1.40;;;;;;;;;;4470620;28;20039;-59
2021/12/15 10:45:51;;;;;;;2.13;1.58;;;;;;;;;;4485219;28;20030;-60
2021/12/15 10:48:02;;;;;;;2.10;1.90;;;;;;;;;;4484870;28;20545;-59
2021/12/15 10:50:20;;;;;;;2.03;1.73;;;;;;;;;;4469348;28;20042;-59
2021/12/15 10:52:32;;;;;;;1.70;1.60;;;;;;;;;;4485122;28;20044;-59
2021/12/15 10:54:51;;;;;;;2.67;2.38;;;;;;;;;;4469496;28;20046;-59
2021/12/15 10:57:13;;;;;;;2.90;2.50;;;;;;;;;;4469652;28;20246;-59
2021/12/15 10:59:30;;;;;;;2.10;1.60;;;;;;;;;;4451222;28;20039;-59
2021/12/15 11:01:51;;;;;;;2.00;1.50;;;;;;;;;;4469908;28;20034;-59
2021/12/15 11:04:04;;;;;;;1.70;1.60;;;;;;;;;;4469456;28;20645;-59
2021/12/15 11:06:20;;;;;;;2.05;1.73;;;;;;;;;;4469705;28;20038;-59
2021/12/15 11:08:33;;;;;;;1.70;1.25;;;;;;;;;;4452297;28;20141;-59
2021/12/15 11:10:43;;;;;;;1.92;1.60;;;;;;;;;;4485229;28;20793;-59
2021/12/15 11:13:06;;;;;;;2.77;2.27;;;;;;;;;;4469884;28;20037;-59
2021/12/15 11:15:26;;;;;;;2.00;1.80;;;;;;;;;;4484649;28;21024;-59
2021/12/15 11:17:57;;;;;;;1.92;1.63;;;;;;;;;;4451303;28;20591;-59
2021/12/15 11:20:15;;;;;;;2.15;1.73;;;;;;;;;;4468675;28;20995;-59
2021/12/15 11:22:32;;;;;;;3.00;1.63;;;;;;;;;;4469294;28;20034;-59
2021/12/15 11:24:43;;;;;;;2.47;1.80;;;;;;;;;;4469179;28;20041;-60
2021/12/15 11:27:20;;;;;;;4.28;2.88;;;;;;;;;;4484992;28;20038;-59
2021/12/15 11:29:43;;;;;;;8.57;5.22;;;;;;;;;;4454318;28;20043;-59
2021/12/15 11:31:53;;;;;;;7.22;5.90;;;;;;;;;;4469214;28;20090;-59
2021/12/15 11:34:07;;;;;;;5.87;4.80;;;;;;;;;;4468649;28;20129;-60
2021/12/15 11:36:30;;;;;;;3.25;2.95;;;;;;;;;;4469185;28;20030;-57
2021/12/15 11:38:44;;;;;;;3.20;2.75;;;;;;;;;;4468896;28;20853;-60
2021/12/15 11:40:58;;;;;;;2.95;2.50;;;;;;;;;;4451615;28;20101;-61
2021/12/15 11:43:09;;;;;;;3.00;2.20;;;;;;;;;;4469275;28;20495;-62
2021/12/15 11:45:20;;;;;;;3.67;2.80;;;;;;;;;;4451591;28;20047;-67
2021/12/15 11:47:33;;;;;;;2.93;2.30;;;;;;;;;;4469308;28;20399;-64
2021/12/15 11:49:44;;;;;;;2.17;1.98;;;;;;;;;;4484477;28;20157;-63
2021/12/15 11:52:04;;;;;;;2.97;2.60;;;;;;;;;;4468964;28;20118;-64
2021/12/15 11:54:30;;;;;;;3.00;2.30;;;;;;;;;;4469359;28;20035;-64
2021/12/15 11:56:41;;;;;;;2.90;2.30;;;;;;;;;;4452016;28;20066;-63
2021/12/15 11:59:01;;;;;;;3.22;2.50;;;;;;;;;;4468855;28;20548;-63
2021/12/15 12:01:57;;;;;;;2.13;1.70;;;;;;;;;;4467902;28;20039;-64
2021/12/15 12:04:33;;;;;;;2.83;2.30;;;;;;;;;;4459137;28;20054;-63
2021/12/15 12:06:46;;;;;;;2.50;2.10;;;;;;;;;;4467436;28;20054;-64
2021/12/15 12:08:56;;;;;;;3.15;2.20;;;;;;;;;;4483568;28;20498;-63
2021/12/15 12:11:15;;;;;;;2.00;1.80;;;;;;;;;;4433829;28;21886;-63
2021/12/15 12:13:29;;;;;;;3.17;2.10;;;;;;;;;;4468392;28;20297;-63
2021/12/15 12:15:45;;;;;;;2.10;1.63;;;;;;;;;;4468973;28;20035;-64
2021/12/15 12:18:04;;;;;;;2.38;1.70;;;;;;;;;;4468538;28;20097;-63
2021/12/15 12:20:50;;;;;;;1.80;1.48;;;;;;;;;;4467140;28;20118;-63
2021/12/15 12:23:05;;;;;;;1.80;1.58;;;;;;;;;;4437702;28;20619;-63
2021/12/15 12:25:23;;;;;;;2.05;1.60;;;;;;;;;;4482740;28;20863;-63
2021/12/15 12:27:34;;;;;;;1.80;1.60;;;;;;;;;;4469079;28;20038;-64
2021/12/15 12:29:45;;;;;;;1.88;1.52;;;;;;;;;;4481956;28;20034;-63
2021/12/15 12:31:55;;;;;;;2.23;1.83;;;;;;;;;;4469282;28;20662;-63
2021/12/15 12:34:06;;;;;;;2.33;1.87;;;;;;;;;;4451368;28;20043;-63
2021/12/15 12:36:20;;;;;;;1.93;1.60;;;;;;;;;;4468303;28;20043;-64
2021/12/15 12:38:33;;;;;;;2.40;1.80;;;;;;;;;;4468179;28;20035;-63
2021/12/15 12:40:52;;;;;;;1.75;1.60;;;;;;;;;;4483599;28;20605;-61
2021/12/15 12:43:29;;;;;;;2.05;1.77;;;;;;;;;;4468082;28;20879;-60
2021/12/15 12:45:41;;;;;;;2.05;1.77;;;;;;;;;;4470026;28;20047;-61
2021/12/15 12:48:25;;;;;;;2.47;1.90;;;;;;;;;;4469179;28;20030;-61
2021/12/15 13:00:43;;;;;;;2.45;1.90;;;;;;;;;;4468336;28;20078;-61
2021/12/15 13:03:19;;;;;;;3.33;2.50;;;;;;;;;;4451548;28;20078;-61
2021/12/15 13:05:48;;;;;;;2.33;1.83;;;;;;;;;;4467810;28;20050;-61
2021/12/15 13:08:02;;;;;;;2.67;2.00;;;;;;;;;;4468166;28;20034;-60
2021/12/15 13:10:13;;;;;;;2.42;2.10;;;;;;;;;;4466339;28;20034;-61
2021/12/15 13:12:27;;;;;;;2.75;2.05;;;;;;;;;;4468847;28;20117;-61
2021/12/15 13:14:38;;;;;;;2.70;2.10;;;;;;;;;;4466945;28;20067;-61
2021/12/15 13:16:52;;;;;;;3.73;2.53;;;;;;;;;;4465217;28;20038;-62
2021/12/15 13:19:14;;;;;;;6.35;3.28;;;;;;;;;;4482118;28;20257;-62
2021/12/15 13:22:19;;;;;;;5.30;3.45;;;;;;;;;;4467705;28;20043;-62
2021/12/15 13:29:52;;;;;;;3.13;2.53;;;;;;;;;;4466844;28;20073;-62
2021/12/15 13:32:03;;;;;;;3.15;2.40;;;;;;;;;;4467989;28;20578;-62
2021/12/15 13:34:33;;;;;;;4.32;2.85;;;;;;;;;;4467264;28;21364;-62
2021/12/15 13:36:44;;;;;;;3.97;3.22;;;;;;;;;;4468220;28;20026;-62
2021/12/15 13:39:02;;;;;;;5.37;4.00;;;;;;;;;;4466486;28;20864;-62
2021/12/15 13:44:10;;;;;;;3.85;3.08;;;;;;;;;;4451258;28;20035;-62
2021/12/15 13:46:23;;;;;;;3.85;3.00;;;;;;;;;;4467514;28;20042;-62
2021/12/15 13:49:26;;;;;;;3.75;3.15;;;;;;;;;;4466927;28;21020;-62
2021/12/15 13:51:53;;;;;;;4.05;2.92;;;;;;;;;;4421090;28;21406;-62
2021/12/15 13:54:03;;;;;;;3.83;3.00;;;;;;;;;;4467861;28;20031;-62
2021/12/15 13:56:14;;;;;;;4.03;3.13;;;;;;;;;;4466650;28;20042;-62
2021/12/15 13:58:25;;;;;;;4.97;3.50;;;;;;;;;;4467267;28;20684;-62
2021/12/15 14:00:48;;;;;;;5.70;4.20;;;;;;;;;;4482072;28;20588;-62
2021/12/15 14:02:58;;;;;;;5.20;4.10;;;;;;;;;;4466786;28;21144;-62
2021/12/15 14:05:15;;;;;;;4.53;3.50;;;;;;;;;;4482991;28;20105;-62
2021/12/15 14:07:28;;;;;;;4.82;3.75;;;;;;;;;;4482478;28;20153;-62
2021/12/15 14:09:39;;;;;;;5.43;3.70;;;;;;;;;;4467371;28;20128;-61
2021/12/15 14:11:49;;;;;;;5.47;3.80;;;;;;;;;;4467870;28;20076;-61
2021/12/15 14:14:03;;;;;;;5.63;4.20;;;;;;;;;;4467579;28;20554;-61
2021/12/15 14:16:47;;;;;;;5.15;3.95;;;;;;;;;;4467595;28;20035;-60
2021/12/15 14:19:00;;;;;;;5.18;3.92;;;;;;;;;;4467945;28;20046;-61
2021/12/15 14:21:15;;;;;;;5.00;4.00;;;;;;;;;;4450171;28;20034;-60
2021/12/15 14:23:35;;;;;;;5.53;4.13;;;;;;;;;;4467835;28;20657;-62
2021/12/15 14:25:46;;;;;;;5.38;4.40;;;;;;;;;;4450256;28;20035;-60
2021/12/15 14:28:05;;;;;;;6.32;4.65;;;;;;;;;;4467430;28;21204;-60
2021/12/15 14:30:17;;;;;;;5.93;4.93;;;;;;;;;;4467835;28;20035;-62
2021/12/15 14:32:27;;;;;;;5.70;4.40;;;;;;;;;;4467362;28;20551;-60
2021/12/15 14:34:39;;;;;;;5.13;4.13;;;;;;;;;;4467978;28;20035;-60
2021/12/15 14:36:56;;;;;;;5.80;4.47;;;;;;;;;;4450743;28;20041;-60
2021/12/15 14:39:10;;;;;;;6.47;4.53;;;;;;;;;;4450034;28;20047;-60
2021/12/15 14:41:24;;;;;;;6.25;4.60;;;;;;;;;;4467057;28;20831;-60
2021/12/15 14:43:34;;;;;;;5.57;4.47;;;;;;;;;;4482193;28;20033;-60
2021/12/15 14:45:45;;;;;;;6.80;4.93;;;;;;;;;;4468114;28;20049;-60
2021/12/15 14:47:55;;;;;;;5.83;4.80;;;;;;;;;;4451835;28;25421;-60
2021/12/15 14:50:11;;;;;;;6.23;4.80;;;;;;;;;;4467556;28;20043;-60
2021/12/15 14:52:25;;;;;;;6.00;4.90;;;;;;;;;;4467858;28;20035;-60
2021/12/15 14:54:37;;;;;;;6.47;5.10;;;;;;;;;;4470641;28;20030;-60
2021/12/15 14:57:04;;;;;;;;;;;;;;;;;;4456720;28;20028;-60